createdAt,value
2018-05-29T00:02:05.296Z,11.82
2018-05-29T00:04:31.584Z,11.73
2018-05-29T00:06:58.613Z,11.20
2018-05-29T00:09:25.097Z,11.25
2018-05-29T00:11:51.429Z,11.35
2018-05-29T00:14:17.775Z,12.57
2018-05-29T00:16:44.086Z,12.90
2018-05-29T00:19:10.503Z,12.15
2018-05-29T00:21:36.868Z,12.25
2018-05-29T00:24:03.257Z,11.15
2018-05-29T00:26:29.927Z,11.25
2018-05-29T00:28:56.360Z,12.02
2018-05-29T00:31:22.710Z,14.02
2018-05-29T00:33:50.657Z,11.80
2018-05-29T00:36:17.014Z,13.05
2018-05-29T00:38:43.311Z,13.90
2018-05-29T00:41:09.612Z,12.48
2018-05-29T00:43:35.934Z,12.35
2018-05-29T00:46:02.241Z,12.70
2018-05-29T00:48:30.073Z,13.13
2018-05-29T00:50:56.395Z,13.25
2018-05-29T00:53:23.458Z,13.88
2018-05-29T00:55:49.896Z,13.50
2018-05-29T00:58:16.767Z,14.13
2018-05-29T01:00:43.071Z,14.57
2018-05-29T01:03:10.120Z,14.20
2018-05-29T01:05:36.498Z,12.82
2018-05-29T01:08:02.763Z,13.38
2018-05-29T01:10:29.054Z,13.32
2018-05-29T01:12:55.312Z,14.68
2018-05-29T01:15:21.557Z,13.23
2018-05-29T01:17:48.552Z,14.38
2018-05-29T01:20:14.865Z,15.50
2018-05-29T01:22:41.808Z,13.15
2018-05-29T01:25:08.139Z,14.90
2018-05-29T01:27:35.089Z,14.23
2018-05-29T01:30:01.428Z,13.30
2018-05-29T01:32:27.801Z,13.52
2018-05-29T01:34:54.100Z,13.70
2018-05-29T01:37:20.420Z,13.45
2018-05-29T01:39:46.734Z,13.55
2018-05-29T01:42:13.186Z,12.88
2018-05-29T01:44:39.500Z,12.15
2018-05-29T01:47:06.014Z,12.98
2018-05-29T01:49:33.122Z,12.95
2018-05-29T01:51:59.484Z,12.15
2018-05-29T01:54:25.882Z,13.38
2018-05-29T01:56:52.346Z,12.23
2018-05-29T01:59:20.172Z,12.35
2018-05-29T02:01:49.566Z,11.93
2018-05-29T02:04:16.079Z,11.18
2018-05-29T02:06:42.449Z,12.18
2018-05-29T02:09:08.790Z,12.60
2018-05-29T02:11:35.106Z,12.18
2018-05-29T02:14:02.134Z,12.90
2018-05-29T02:16:29.244Z,12.02
2018-05-29T02:18:55.568Z,12.10
2018-05-29T02:21:21.873Z,13.35
2018-05-29T02:23:48.179Z,13.52
2018-05-29T02:26:14.651Z,16.23
2018-05-29T02:28:41.095Z,13.65
2018-05-29T02:31:08.469Z,14.73
2018-05-29T02:33:34.773Z,13.90
2018-05-29T02:36:01.153Z,14.32
2018-05-29T02:38:27.497Z,12.77
2018-05-29T02:40:53.882Z,12.73
2018-05-29T02:43:20.281Z,12.43
2018-05-29T02:45:46.595Z,12.57
2018-05-29T02:48:13.083Z,11.45
2018-05-29T02:50:39.521Z,11.57
2018-05-29T02:53:05.892Z,11.77
2018-05-29T02:55:34.508Z,9.75
2018-05-29T02:58:01.607Z,10.48
2018-05-29T03:00:28.123Z,9.95
2018-05-29T03:02:55.587Z,8.77
2018-05-29T03:05:22.226Z,8.73
2018-05-29T03:07:48.571Z,8.25
2018-05-29T03:10:14.865Z,8.25
2018-05-29T03:12:41.185Z,8.25
2018-05-29T03:15:07.519Z,6.97
2018-05-29T03:17:34.584Z,8.18
2018-05-29T03:20:01.669Z,7.82
2018-05-29T03:22:28.102Z,7.47
2018-05-29T03:24:54.625Z,7.65
2018-05-29T03:27:20.996Z,7.12
2018-05-29T03:29:47.374Z,6.90
2018-05-29T03:32:14.542Z,6.55
2018-05-29T03:34:40.914Z,6.40
2018-05-29T03:37:07.270Z,6.75
2018-05-29T03:39:33.779Z,6.78
2018-05-29T03:42:00.157Z,6.82
2018-05-29T03:44:26.730Z,5.97
2018-05-29T03:46:55.008Z,7.60
2018-05-29T03:49:21.407Z,6.90
2018-05-29T03:51:48.528Z,6.22
2018-05-29T03:54:14.856Z,7.07
2018-05-29T03:56:41.308Z,6.37
2018-05-29T03:59:08.379Z,6.65
2018-05-29T04:01:34.673Z,6.80
2018-05-29T04:04:00.990Z,6.60
2018-05-29T04:06:27.341Z,7.35
2018-05-29T04:08:54.200Z,7.53
2018-05-29T04:11:20.636Z,7.57
2018-05-29T04:13:47.820Z,7.60
2018-05-29T04:16:14.904Z,8.05
2018-05-29T04:18:41.251Z,8.07
2018-05-29T04:21:07.962Z,7.70
2018-05-29T04:23:34.322Z,7.80
2018-05-29T04:26:01.252Z,9.00
2018-05-29T04:28:27.680Z,7.95
2018-05-29T04:30:54.006Z,7.87
2018-05-29T04:33:21.144Z,8.55
2018-05-29T04:35:47.588Z,8.23
2018-05-29T04:38:13.961Z,7.87
2018-05-29T04:40:40.295Z,7.68
2018-05-29T04:43:06.675Z,8.20
2018-05-29T04:45:33.741Z,8.93
2018-05-29T04:48:00.082Z,7.62
2018-05-29T04:50:26.370Z,7.90
2018-05-29T04:52:52.781Z,8.77
2018-05-29T04:55:19.095Z,8.48
2018-05-29T04:57:45.724Z,8.32
2018-05-29T05:00:12.091Z,8.05
2018-05-29T05:02:38.424Z,7.85
2018-05-29T05:05:05.477Z,8.25
2018-05-29T05:07:31.767Z,8.80
2018-05-29T05:09:58.215Z,8.70
2018-05-29T05:12:24.545Z,9.55
2018-05-29T05:14:50.917Z,8.80
2018-05-29T05:17:17.983Z,9.35
2018-05-29T05:19:45.049Z,10.05
2018-05-29T05:22:11.501Z,9.98
2018-05-29T05:24:38.698Z,11.65
2018-05-29T05:27:05.795Z,11.57
2018-05-29T05:29:32.187Z,11.48
2018-05-29T05:31:58.487Z,12.73
2018-05-29T05:34:24.794Z,11.85
2018-05-29T05:36:51.247Z,12.77
2018-05-29T05:39:17.551Z,13.13
2018-05-29T05:41:44.111Z,13.43
2018-05-29T05:44:25.390Z,13.32
2018-05-29T05:46:51.759Z,14.68
2018-05-29T05:49:18.118Z,13.40
2018-05-29T05:51:45.198Z,14.50
2018-05-29T05:54:11.520Z,15.52
2018-05-29T05:56:37.810Z,14.35
2018-05-29T05:59:04.104Z,15.85
2018-05-29T06:01:30.423Z,16.58
2018-05-29T06:03:57.532Z,15.63
2018-05-29T06:06:24.646Z,15.75
2018-05-29T06:08:50.981Z,14.87
2018-05-29T06:11:17.470Z,14.85
2018-05-29T06:13:44.634Z,14.75
2018-05-29T06:16:11.006Z,16.08
2018-05-29T06:18:37.426Z,16.25
2018-05-29T06:21:03.754Z,14.82
2018-05-29T06:23:30.105Z,15.85
2018-05-29T06:25:56.551Z,15.55
2018-05-29T06:28:22.940Z,13.57
2018-05-29T06:30:49.389Z,15.50
2018-05-29T06:33:15.795Z,14.60
2018-05-29T06:35:42.312Z,15.35
2018-05-29T06:38:09.437Z,14.90
2018-05-29T06:40:35.883Z,15.80
2018-05-29T06:43:02.195Z,14.70
2018-05-29T06:45:28.560Z,16.08
2018-05-29T06:47:55.737Z,16.40
2018-05-29T06:50:22.811Z,15.55
2018-05-29T06:52:49.247Z,15.25
2018-05-29T06:55:15.699Z,15.55
2018-05-29T06:57:42.107Z,14.95
2018-05-29T07:00:08.421Z,16.55
2018-05-29T07:02:34.884Z,16.37
2018-05-29T07:05:01.277Z,16.25
2018-05-29T07:07:28.431Z,15.07
2018-05-29T07:09:55.631Z,15.88
2018-05-29T07:12:22.038Z,15.23
2018-05-29T07:14:49.163Z,15.07
2018-05-29T07:17:15.444Z,14.48
2018-05-29T07:19:41.803Z,14.77
2018-05-29T07:22:08.274Z,16.02
2018-05-29T07:24:35.393Z,16.30
2018-05-29T07:27:01.707Z,15.77
2018-05-29T07:29:28.040Z,16.50
2018-05-29T07:31:54.343Z,17.30
2018-05-29T07:34:20.674Z,15.48
2018-05-29T07:36:47.857Z,15.68
2018-05-29T07:39:14.312Z,18.15
2018-05-29T07:41:40.746Z,16.33
2018-05-29T07:44:07.079Z,17.45
2018-05-29T07:46:33.502Z,17.52
2018-05-29T07:48:59.946Z,18.40
2018-05-29T07:51:27.032Z,17.25
2018-05-29T07:53:53.318Z,18.73
2018-05-29T07:56:19.674Z,18.23
2018-05-29T07:58:47.124Z,16.58
2018-05-29T08:01:13.486Z,18.17
2018-05-29T08:03:40.577Z,18.60
2018-05-29T08:06:07.084Z,17.73
2018-05-29T08:08:33.388Z,17.40
2018-05-29T08:10:59.777Z,17.48
2018-05-29T08:13:26.157Z,18.55
2018-05-29T08:15:53.288Z,17.58
2018-05-29T08:18:19.753Z,16.67
2018-05-29T08:20:46.834Z,18.62
2018-05-29T08:23:13.173Z,18.02
2018-05-29T08:25:39.577Z,17.62
2018-05-29T08:28:05.946Z,17.02
2018-05-29T08:30:32.268Z,17.35
2018-05-29T08:33:01.660Z,16.67
2018-05-29T08:35:27.979Z,18.23
2018-05-29T08:37:56.569Z,17.30
2018-05-29T08:40:23.019Z,16.85
2018-05-29T08:42:49.409Z,15.75
2018-05-29T08:45:15.707Z,16.60
2018-05-29T08:47:41.981Z,15.98
2018-05-29T08:50:09.035Z,17.10
2018-05-29T08:52:35.315Z,16.87
2018-05-29T08:55:02.592Z,16.25
2018-05-29T08:57:28.855Z,16.20
2018-05-29T08:59:55.125Z,15.85
2018-05-29T09:02:22.185Z,15.00
2018-05-29T09:04:49.366Z,14.85
2018-05-29T09:07:15.626Z,15.25
2018-05-29T09:09:42.077Z,16.12
2018-05-29T09:12:08.317Z,15.75
2018-05-29T09:14:35.401Z,16.05
2018-05-29T09:17:02.365Z,15.80
2018-05-29T09:19:28.643Z,14.68
2018-05-29T09:21:54.903Z,14.95
2018-05-29T09:24:21.910Z,15.30
2018-05-29T09:26:48.183Z,15.93
2018-05-29T09:29:14.451Z,15.70
2018-05-29T09:31:40.727Z,15.35
2018-05-29T09:34:06.973Z,15.70
2018-05-29T09:36:33.273Z,16.77
2018-05-29T09:38:59.601Z,14.65
2018-05-29T09:41:25.885Z,15.70
2018-05-29T09:43:52.172Z,15.63
2018-05-29T09:46:18.414Z,15.43
2018-05-29T09:48:44.653Z,15.35
2018-05-29T09:51:11.660Z,14.75
2018-05-29T09:53:37.958Z,15.80
2018-05-29T09:56:04.291Z,15.18
2018-05-29T09:58:30.568Z,15.85
2018-05-29T10:00:56.864Z,14.80
2018-05-29T10:03:23.232Z,15.02
2018-05-29T10:05:49.702Z,14.43
2018-05-29T10:08:16.072Z,15.30
2018-05-29T10:10:42.500Z,15.48
2018-05-29T10:13:09.638Z,15.90
2018-05-29T10:15:36.928Z,16.45
2018-05-29T10:18:03.313Z,16.15
2018-05-29T10:20:29.619Z,17.15
2018-05-29T10:22:56.111Z,17.17
2018-05-29T10:25:22.464Z,17.30
2018-05-29T10:27:49.593Z,15.75
2018-05-29T10:30:16.027Z,16.62
2018-05-29T10:32:42.593Z,16.17
2018-05-29T10:35:09.679Z,15.52
2018-05-29T10:37:36.823Z,15.02
2018-05-29T10:40:03.258Z,15.55
2018-05-29T10:42:29.742Z,16.10
2018-05-29T10:44:56.152Z,15.45
2018-05-29T10:47:22.519Z,15.73
2018-05-29T10:49:48.879Z,16.25
2018-05-29T10:52:15.197Z,17.08
2018-05-29T10:54:41.541Z,16.27
2018-05-29T10:57:08.601Z,16.37
2018-05-29T10:59:34.952Z,17.50
2018-05-29T11:02:01.302Z,16.73
2018-05-29T11:04:27.675Z,16.08
2018-05-29T11:06:54.815Z,15.98
2018-05-29T11:09:21.186Z,16.70
2018-05-29T11:11:48.269Z,15.98
2018-05-29T11:14:14.636Z,17.20
2018-05-29T11:16:40.954Z,16.37
2018-05-29T11:19:07.289Z,17.35
2018-05-29T11:21:33.674Z,16.90
2018-05-29T11:24:00.059Z,17.10
2018-05-29T11:26:26.340Z,17.50
2018-05-29T11:28:53.411Z,17.50
2018-05-29T11:31:19.803Z,16.25
2018-05-29T11:33:46.106Z,16.90
2018-05-29T11:36:12.447Z,18.85
2018-05-29T11:38:38.808Z,16.00
2018-05-29T11:41:05.247Z,16.73
2018-05-29T11:43:31.650Z,17.75
2018-05-29T11:45:58.208Z,17.12
2018-05-29T11:48:24.592Z,16.90
2018-05-29T11:50:50.974Z,16.65
2018-05-29T11:53:18.054Z,17.52
2018-05-29T11:55:44.390Z,18.92
2018-05-29T11:58:10.772Z,18.98
2018-05-29T12:00:37.163Z,18.05
2018-05-29T12:03:03.569Z,18.83
2018-05-29T12:05:30.644Z,19.00
2018-05-29T12:07:57.683Z,19.33
2018-05-29T12:10:24.116Z,19.30
2018-05-29T12:12:50.506Z,18.90
2018-05-29T12:15:16.911Z,19.87
2018-05-29T12:17:43.302Z,21.98
2018-05-29T12:20:10.495Z,20.67
2018-05-29T12:22:36.897Z,20.70
2018-05-29T12:25:03.288Z,22.15
2018-05-29T12:27:29.742Z,21.98
2018-05-29T12:29:56.175Z,21.30
2018-05-29T12:32:22.541Z,21.75
2018-05-29T12:34:49.725Z,23.50
2018-05-29T12:37:16.127Z,22.20
2018-05-29T12:39:42.509Z,23.77
2018-05-29T12:42:08.972Z,22.83
2018-05-29T12:44:35.413Z,23.80
2018-05-29T12:47:01.825Z,24.60
2018-05-29T12:49:28.375Z,23.62
2018-05-29T12:51:54.659Z,21.92
2018-05-29T12:54:21.066Z,22.50
2018-05-29T12:56:48.163Z,22.83
2018-05-29T12:59:14.566Z,23.80
2018-05-29T13:01:40.951Z,22.67
2018-05-29T13:04:13.484Z,23.33
2018-05-29T13:06:39.946Z,22.40
2018-05-29T13:09:06.389Z,21.60
2018-05-29T13:11:32.877Z,22.55
2018-05-29T13:13:59.246Z,23.02
2018-05-29T13:16:25.635Z,22.10
2018-05-29T13:18:52.966Z,22.55
2018-05-29T13:21:19.402Z,22.98
2018-05-29T13:23:45.769Z,22.42
2018-05-29T13:26:12.919Z,21.73
2018-05-29T13:28:40.054Z,21.50
2018-05-29T13:31:06.444Z,20.65
2018-05-29T13:33:33.531Z,19.83
2018-05-29T13:36:00.652Z,19.60
2018-05-29T13:38:27.162Z,20.42
2018-05-29T13:40:53.567Z,18.45
2018-05-29T13:43:19.916Z,19.90
2018-05-29T13:45:47.021Z,19.92
2018-05-29T13:48:14.140Z,19.83
2018-05-29T13:50:40.515Z,19.48
2018-05-29T13:53:07.568Z,20.12
2018-05-29T13:55:33.917Z,20.37
2018-05-29T13:58:01.048Z,19.92
2018-05-29T14:00:27.588Z,20.95
2018-05-29T14:02:54.722Z,19.58
2018-05-29T14:05:21.043Z,18.85
2018-05-29T14:07:47.410Z,19.52
2018-05-29T14:10:14.610Z,17.40
2018-05-29T14:12:40.946Z,18.83
2018-05-29T14:15:07.335Z,19.37
2018-05-29T14:17:34.447Z,16.33
2018-05-29T14:20:00.881Z,20.12
2018-05-29T14:22:27.356Z,18.40
2018-05-29T14:24:53.737Z,17.48
2018-05-29T14:27:20.172Z,20.08
2018-05-29T14:29:46.581Z,18.50
2018-05-29T14:32:13.655Z,20.58
2018-05-29T14:34:40.039Z,19.00
2018-05-29T14:37:06.382Z,16.70
2018-05-29T14:39:33.494Z,19.00
2018-05-29T14:41:59.895Z,19.62
2018-05-29T14:44:26.321Z,20.17
2018-05-29T14:46:52.718Z,20.00
2018-05-29T14:49:19.085Z,19.75
2018-05-29T14:51:45.559Z,20.58
2018-05-29T14:54:11.979Z,19.23
2018-05-29T14:56:38.449Z,20.33
2018-05-29T14:59:04.834Z,20.27
2018-05-29T15:01:31.147Z,21.05
2018-05-29T15:03:58.342Z,22.17
2018-05-29T15:06:24.700Z,20.52
2018-05-29T15:08:51.218Z,21.15
2018-05-29T15:11:17.535Z,20.55
2018-05-29T15:13:43.984Z,21.65
2018-05-29T15:16:10.377Z,23.08
2018-05-29T15:18:36.760Z,21.27
2018-05-29T15:21:03.920Z,22.23
2018-05-29T15:23:30.399Z,23.87
2018-05-29T15:25:56.791Z,23.62
2018-05-29T15:28:23.152Z,23.48
2018-05-29T15:30:49.529Z,24.12
2018-05-29T15:33:15.939Z,23.60
2018-05-29T15:35:42.375Z,23.87
2018-05-29T15:38:08.884Z,22.15
2018-05-29T15:40:35.187Z,22.37
2018-05-29T15:43:01.551Z,22.65
2018-05-29T15:45:27.941Z,23.38
2018-05-29T15:47:55.173Z,24.33
2018-05-29T15:50:21.619Z,24.55
2018-05-29T15:52:47.967Z,24.48
2018-05-29T15:55:14.275Z,24.92
2018-05-29T15:57:40.670Z,24.73
2018-05-29T16:00:06.970Z,23.67
2018-05-29T16:02:33.370Z,22.98
2018-05-29T16:05:00.513Z,24.63
2018-05-29T16:07:27.620Z,23.20
2018-05-29T16:09:53.967Z,24.42
2018-05-29T16:12:20.253Z,24.90
2018-05-29T16:14:46.726Z,25.73
2018-05-29T16:17:13.060Z,24.05
2018-05-29T16:19:39.616Z,24.00
2018-05-29T16:22:06.680Z,24.67
2018-05-29T16:24:34.464Z,24.92
2018-05-29T16:27:00.790Z,23.98
2018-05-29T16:29:27.850Z,24.85
2018-05-29T16:31:54.243Z,24.00
2018-05-29T16:34:21.330Z,23.67
2018-05-29T16:36:48.541Z,22.70
2018-05-29T16:39:14.853Z,23.92
2018-05-29T16:41:41.257Z,23.60
2018-05-29T16:44:07.672Z,23.83
2018-05-29T16:46:34.000Z,23.48
2018-05-29T16:49:00.374Z,23.48
2018-05-29T16:51:27.419Z,22.50
2018-05-29T16:53:54.108Z,22.40
2018-05-29T16:56:21.439Z,21.90
2018-05-29T16:58:48.893Z,22.27
2018-05-29T17:01:15.238Z,24.52
2018-05-29T17:03:41.579Z,23.60
2018-05-29T17:06:07.997Z,23.45
2018-05-29T17:08:34.361Z,23.12
2018-05-29T17:11:00.693Z,21.00
2018-05-29T17:13:27.020Z,21.10
2018-05-29T17:15:53.331Z,20.17
2018-05-29T17:18:19.705Z,20.30
2018-05-29T17:20:46.184Z,19.75
2018-05-29T17:23:13.366Z,20.40
2018-05-29T17:25:39.736Z,19.95
2018-05-29T17:28:06.812Z,19.85
2018-05-29T17:30:33.191Z,19.75
2018-05-29T17:32:59.640Z,19.55
2018-05-29T17:35:26.723Z,20.25
2018-05-29T17:37:53.776Z,18.75
2018-05-29T17:40:20.151Z,20.10
2018-05-29T17:42:46.529Z,21.08
2018-05-29T17:45:13.643Z,20.62
2018-05-29T17:47:40.003Z,21.60
2018-05-29T17:50:07.083Z,22.08
2018-05-29T17:52:33.482Z,23.05
2018-05-29T17:54:59.842Z,23.95
2018-05-29T17:57:26.918Z,24.15
2018-05-29T17:59:53.301Z,25.83
2018-05-29T18:02:19.658Z,23.62
2018-05-29T18:04:46.704Z,25.62
2018-05-29T18:07:13.817Z,25.80
2018-05-29T18:09:40.182Z,25.15
2018-05-29T18:12:14.085Z,25.55
2018-05-29T18:14:42.347Z,25.58
2018-05-29T18:17:09.432Z,24.85
2018-05-29T18:19:35.910Z,24.02
2018-05-29T18:22:02.328Z,23.42
2018-05-29T18:24:28.738Z,22.67
2018-05-29T18:26:55.136Z,20.88
2018-05-29T18:29:22.290Z,21.92
2018-05-29T18:31:48.582Z,20.90
2018-05-29T18:34:14.970Z,21.12
2018-05-29T18:36:41.440Z,23.05
2018-05-29T18:39:07.751Z,21.95
2018-05-29T18:41:34.818Z,23.15
2018-05-29T18:44:01.086Z,23.75
2018-05-29T18:46:27.394Z,24.27
2018-05-29T18:48:53.729Z,23.83
2018-05-29T18:51:20.025Z,24.63
2018-05-29T18:53:47.135Z,22.95
2018-05-29T18:56:13.440Z,25.30
2018-05-29T18:58:39.763Z,24.52
2018-05-29T19:01:06.154Z,22.02
2018-05-29T19:03:39.528Z,24.55
2018-05-29T19:06:06.714Z,24.55
2018-05-29T19:08:33.194Z,22.92
2018-05-29T19:10:59.702Z,22.85
2018-05-29T19:13:26.087Z,24.23
2018-05-29T19:15:52.500Z,25.12
2018-05-29T19:18:18.899Z,22.80
2018-05-29T19:20:45.248Z,24.52
2018-05-29T19:23:11.738Z,24.33
2018-05-29T19:25:38.059Z,22.05
2018-05-29T19:28:04.392Z,24.70
2018-05-29T19:30:31.288Z,24.27
2018-05-29T19:32:59.637Z,22.75
2018-05-29T19:35:26.119Z,23.30
2018-05-29T19:37:52.487Z,21.40
2018-05-29T19:40:18.885Z,22.92
2018-05-29T19:42:45.219Z,22.83
2018-05-29T19:45:11.561Z,23.05
2018-05-29T19:47:38.010Z,22.50
2018-05-29T19:50:04.431Z,23.62
2018-05-29T19:52:30.754Z,22.33
2018-05-29T19:54:57.032Z,23.25
2018-05-29T19:57:23.335Z,22.60
2018-05-29T19:59:49.672Z,22.33
2018-05-29T20:02:15.967Z,22.55
2018-05-29T20:04:43.114Z,23.58
2018-05-29T20:07:10.172Z,22.87
2018-05-29T20:09:37.359Z,23.70
2018-05-29T20:12:03.722Z,23.27
2018-05-29T20:14:30.091Z,23.85
2018-05-29T20:16:57.105Z,23.85
2018-05-29T20:19:23.641Z,24.08
2018-05-29T20:21:51.732Z,21.62
2018-05-29T20:24:19.887Z,22.55
2018-05-29T20:26:48.317Z,24.45
2018-05-29T20:29:15.770Z,23.48
2018-05-29T20:31:42.222Z,24.15
2018-05-29T20:34:08.590Z,23.23
2018-05-29T20:36:35.013Z,24.15
2018-05-29T20:39:01.405Z,25.10
2018-05-29T20:41:28.415Z,25.25
2018-05-29T20:43:54.888Z,25.40
2018-05-29T20:46:22.010Z,23.95
2018-05-29T20:48:48.886Z,24.25
2018-05-29T20:51:15.361Z,25.90
2018-05-29T20:53:41.674Z,26.30
2018-05-29T20:56:07.988Z,26.05
2018-05-29T20:58:34.381Z,25.98
2018-05-29T21:01:01.286Z,24.77
2018-05-29T21:03:28.326Z,25.33
2018-05-29T21:05:54.638Z,25.23
2018-05-29T21:08:22.269Z,25.90
2018-05-29T21:10:51.355Z,25.75
2018-05-29T21:13:18.834Z,27.67
2018-05-29T21:15:45.327Z,26.05
2018-05-29T21:18:11.660Z,26.75
2018-05-29T21:20:38.802Z,24.70
2018-05-29T21:23:05.947Z,25.90
2018-05-29T21:25:32.689Z,26.60
2018-05-29T21:27:59.127Z,27.67
2018-05-29T21:30:26.287Z,26.90
2018-05-29T21:32:52.717Z,26.25
2018-05-29T21:35:19.085Z,27.33
2018-05-29T21:37:45.384Z,26.30
2018-05-29T21:40:11.695Z,26.75
2018-05-29T21:42:38.760Z,27.20
2018-05-29T21:45:05.112Z,28.08
2018-05-29T21:47:31.397Z,28.48
2018-05-29T21:49:57.858Z,28.55
2018-05-29T21:52:24.186Z,27.42
2018-05-29T21:54:50.672Z,28.27
2018-05-29T21:57:16.961Z,27.70
2018-05-29T21:59:43.346Z,29.55
2018-05-29T22:02:10.560Z,28.00
2018-05-29T22:04:37.954Z,27.62
2018-05-29T22:07:04.271Z,28.73
2018-05-29T22:09:30.615Z,28.33
2018-05-29T22:11:57.011Z,27.45
2018-05-29T22:14:23.347Z,27.98
2018-05-29T22:16:49.773Z,28.80
2018-05-29T22:19:16.206Z,27.83
2018-05-29T22:21:42.756Z,29.05
2018-05-29T22:24:09.143Z,27.70
2018-05-29T22:26:35.616Z,27.17
2018-05-29T22:29:01.927Z,27.55
2018-05-29T22:31:29.041Z,29.15
2018-05-29T22:33:55.437Z,26.95
2018-05-29T22:36:22.302Z,28.77
2018-05-29T22:38:48.600Z,29.98
2018-05-29T22:41:14.919Z,30.88
2018-05-29T22:43:42.027Z,29.90
2018-05-29T22:46:09.883Z,29.85
2018-05-29T22:48:36.194Z,28.27
2018-05-29T22:51:02.477Z,28.35
2018-05-29T22:53:28.780Z,27.70
2018-05-29T22:55:55.103Z,28.40
2018-05-29T22:58:21.398Z,28.00
2018-05-29T23:00:47.850Z,30.08
2018-05-29T23:03:14.149Z,30.33
2018-05-29T23:05:40.503Z,30.80
2018-05-29T23:08:07.701Z,30.55
2018-05-29T23:10:34.291Z,30.75
2018-05-29T23:13:00.633Z,29.27
2018-05-29T23:15:27.691Z,30.02
2018-05-29T23:17:54.129Z,28.70
2018-05-29T23:20:20.566Z,28.85
2018-05-29T23:22:46.961Z,30.17
2018-05-29T23:25:14.007Z,29.40
2018-05-29T23:27:41.053Z,29.10
2018-05-29T23:30:07.366Z,27.90
2018-05-29T23:32:33.654Z,28.42
2018-05-29T23:35:00.199Z,29.48
2018-05-29T23:37:26.948Z,30.08
2018-05-29T23:39:53.880Z,28.58
2018-05-29T23:42:20.164Z,29.15
2018-05-29T23:44:46.528Z,27.62
2018-05-29T23:47:13.634Z,28.77
2018-05-29T23:49:40.016Z,28.00
2018-05-29T23:52:06.308Z,28.92
2018-05-29T23:54:32.640Z,28.65
2018-05-29T23:56:59.205Z,26.83
2018-05-29T23:59:26.289Z,25.92
